createdAt,value
2022-09-20T00:00:43.282Z,4.50
2022-09-20T00:04:05.409Z,4.50
2022-09-20T00:07:26.532Z,5.15
2022-09-20T00:10:48.284Z,4.38
2022-09-20T00:14:09.291Z,4.07
2022-09-20T00:17:30.398Z,5.40
2022-09-20T00:20:51.615Z,5.40
2022-09-20T00:24:12.515Z,4.72
2022-09-20T00:27:34.305Z,4.97
2022-09-20T00:30:55.007Z,5.40
2022-09-20T00:34:32.785Z,6.00
2022-09-20T00:37:53.080Z,4.82
2022-09-20T00:41:15.066Z,5.13
2022-09-20T00:44:42.453Z,5.50
2022-09-20T00:48:07.953Z,4.32
2022-09-20T00:51:31.392Z,6.15
2022-09-20T00:54:53.131Z,5.70
2022-09-20T00:58:13.591Z,6.47
2022-09-20T01:01:35.990Z,5.43
2022-09-20T01:04:57.529Z,7.05
2022-09-20T01:08:18.491Z,6.10
2022-09-20T01:11:38.855Z,5.68
2022-09-20T01:14:59.182Z,5.35
2022-09-20T01:18:22.461Z,5.60
2022-09-20T01:21:43.616Z,5.88
2022-09-20T01:25:08.503Z,5.80
2022-09-20T01:28:33.950Z,5.65
2022-09-20T01:31:59.024Z,6.25
2022-09-20T01:35:23.143Z,5.45
2022-09-20T01:38:51.959Z,5.90
2022-09-20T01:42:15.101Z,6.80
2022-09-20T01:45:42.618Z,5.85
2022-09-20T01:49:10.706Z,5.70
2022-09-20T01:53:14.497Z,6.47
2022-09-20T01:56:58.028Z,5.90
2022-09-20T02:00:35.921Z,6.70
2022-09-20T02:04:35.401Z,5.68
2022-09-20T02:08:09.374Z,6.35
2022-09-20T02:11:42.751Z,6.45
2022-09-20T02:15:32.476Z,7.03
2022-09-20T02:19:03.920Z,6.45
2022-09-20T02:22:41.050Z,5.85
2022-09-20T02:26:15.210Z,5.70
2022-09-20T02:29:47.558Z,5.82
2022-09-20T02:33:33.137Z,5.60
2022-09-20T02:37:07.590Z,6.97
2022-09-20T02:40:47.837Z,7.40
2022-09-20T02:44:14.369Z,7.13
2022-09-20T02:47:39.432Z,7.90
2022-09-20T02:51:10.096Z,7.38
2022-09-20T02:54:35.169Z,7.85
2022-09-20T02:58:00.037Z,7.43
2022-09-20T03:01:38.869Z,7.25
2022-09-20T03:05:11.270Z,7.10
2022-09-20T03:08:40.687Z,7.57
2022-09-20T03:12:11.377Z,8.35
2022-09-20T03:15:36.289Z,8.02
2022-09-20T03:19:02.651Z,7.75
2022-09-20T03:22:29.729Z,7.03
2022-09-20T03:26:04.110Z,7.65
2022-09-20T03:29:43.919Z,6.40
2022-09-20T03:33:12.310Z,7.18
2022-09-20T03:36:43.468Z,6.50
2022-09-20T03:40:28.431Z,6.82
2022-09-20T03:43:55.504Z,6.65
2022-09-20T03:47:23.770Z,6.60
2022-09-20T03:51:12.731Z,6.45
2022-09-20T03:54:58.981Z,6.68
2022-09-20T03:58:31.958Z,6.85
2022-09-20T04:02:02.907Z,6.32
2022-09-20T04:05:28.125Z,6.25
2022-09-20T04:09:09.652Z,6.82
2022-09-20T04:12:36.748Z,6.93
2022-09-20T04:16:05.775Z,6.68
2022-09-20T04:19:33.246Z,6.38
2022-09-20T04:22:54.287Z,7.15
2022-09-20T04:26:16.820Z,6.75
2022-09-20T04:29:41.760Z,7.28
2022-09-20T04:33:10.046Z,5.82
2022-09-20T04:36:37.882Z,6.50
2022-09-20T04:40:10.893Z,6.75
2022-09-20T04:44:21.838Z,6.10
2022-09-20T04:48:11.579Z,7.30
2022-09-20T04:52:00.768Z,7.55
2022-09-20T04:55:47.239Z,7.35
2022-09-20T04:59:28.280Z,6.88
2022-09-20T05:03:40.366Z,5.80
2022-09-20T05:07:25.812Z,7.67
2022-09-20T05:11:14.173Z,6.15
2022-09-20T05:15:05.792Z,6.22
2022-09-20T05:18:57.848Z,6.13
2022-09-20T05:22:48.325Z,6.93
2022-09-20T05:26:20.561Z,6.05
2022-09-20T05:29:52.683Z,6.20
2022-09-20T05:33:21.367Z,6.93
2022-09-20T05:36:49.896Z,6.22
2022-09-20T05:40:26.427Z,6.45
2022-09-20T05:43:51.904Z,6.40
2022-09-20T05:47:19.011Z,6.88
2022-09-20T05:50:47.611Z,7.00
2022-09-20T05:54:29.391Z,6.28
2022-09-20T05:57:56.868Z,7.40
2022-09-20T06:01:21.230Z,7.20
2022-09-20T06:04:44.218Z,9.02
2022-09-20T06:08:20.198Z,10.05
2022-09-20T06:11:52.912Z,8.70
2022-09-20T06:15:21.665Z,8.80
2022-09-20T06:18:48.886Z,9.55
2022-09-20T06:22:20.672Z,10.50
2022-09-20T06:25:43.446Z,9.95
2022-09-20T06:29:08.485Z,8.93
2022-09-20T06:32:28.889Z,7.57
2022-09-20T06:35:50.672Z,6.60
2022-09-20T06:39:44.654Z,6.18
2022-09-20T06:43:05.323Z,6.75
2022-09-20T06:46:26.159Z,5.47
2022-09-20T06:49:46.870Z,5.53
2022-09-20T06:53:08.262Z,4.90
2022-09-20T06:56:31.965Z,9.98
2022-09-20T06:59:53.013Z,4.47
2022-09-20T07:03:13.631Z,5.32
2022-09-20T07:06:33.952Z,4.70
2022-09-20T07:09:54.435Z,5.22
2022-09-20T07:13:16.060Z,10.57
2022-09-20T07:16:37.253Z,4.82
2022-09-20T07:19:57.548Z,4.72
2022-09-20T07:23:18.524Z,4.78
2022-09-20T07:26:39.129Z,4.78
2022-09-20T07:30:02.418Z,4.10
2022-09-20T07:33:25.258Z,3.78
2022-09-20T07:36:46.118Z,3.85
2022-09-20T07:40:07.062Z,3.38
2022-09-20T07:43:27.836Z,2.58
2022-09-20T07:46:49.948Z,2.63
2022-09-20T07:50:11.848Z,2.47
2022-09-20T07:53:32.264Z,2.50
2022-09-20T07:56:53.157Z,4.68
2022-09-20T08:00:13.860Z,4.50
2022-09-20T08:03:35.615Z,6.60
2022-09-20T08:06:58.426Z,4.90
2022-09-20T08:10:18.920Z,5.15
2022-09-20T08:17:20.244Z,3.13
2022-09-20T08:20:41.902Z,3.53
2022-09-20T08:24:03.967Z,4.93
2022-09-20T08:27:24.619Z,4.53
2022-09-20T08:30:44.844Z,3.97
2022-09-20T08:34:06.386Z,4.22
2022-09-20T08:37:28.954Z,4.75
2022-09-20T08:40:49.441Z,4.85
2022-09-20T08:44:12.868Z,3.63
2022-09-20T08:47:36.720Z,3.80
2022-09-20T08:50:58.267Z,4.28
2022-09-20T08:54:20.546Z,4.13
2022-09-20T08:57:41.115Z,4.05
2022-09-20T09:01:09.394Z,4.25
2022-09-20T09:04:33.069Z,4.05
2022-09-20T09:07:53.346Z,4.28
2022-09-20T09:11:15.628Z,4.15
2022-09-20T09:14:49.158Z,3.60
2022-09-20T09:18:10.719Z,3.78
2022-09-20T09:21:34.568Z,3.40
2022-09-20T09:25:22.034Z,3.33
2022-09-20T09:28:48.394Z,3.40
2022-09-20T09:32:20.496Z,4.00
2022-09-20T09:35:40.979Z,4.00
2022-09-20T09:39:17.115Z,3.40
2022-09-20T09:42:37.557Z,3.53
2022-09-20T09:46:21.357Z,3.42
2022-09-20T09:49:42.884Z,4.25
2022-09-20T09:53:09.614Z,4.28
2022-09-20T09:56:57.221Z,3.88
2022-09-20T10:00:33.411Z,3.80
2022-09-20T10:04:10.491Z,3.60
2022-09-20T10:07:51.314Z,4.18
2022-09-20T10:11:20.931Z,3.75
2022-09-20T10:14:53.078Z,4.25
2022-09-20T10:18:27.037Z,3.78
2022-09-20T10:22:01.740Z,3.70
2022-09-20T10:25:27.251Z,4.10
2022-09-20T10:28:57.372Z,4.07
2022-09-20T10:32:29.037Z,4.00
2022-09-20T10:36:05.464Z,4.20
2022-09-20T10:39:28.842Z,4.57
2022-09-20T10:43:13.348Z,4.60
2022-09-20T10:46:40.086Z,4.43
2022-09-20T10:50:15.497Z,4.10
2022-09-20T10:53:47.852Z,4.40
2022-09-20T10:57:22.351Z,3.83
2022-09-20T11:00:49.219Z,4.90
2022-09-20T11:04:22.576Z,5.38
2022-09-20T11:07:53.206Z,4.78
2022-09-20T11:11:17.140Z,5.20
2022-09-20T11:14:39.820Z,4.60
2022-09-20T11:18:06.082Z,4.03
2022-09-20T11:21:32.165Z,4.70
2022-09-20T11:24:55.145Z,4.90
2022-09-20T11:28:19.355Z,4.40
2022-09-20T11:31:44.917Z,4.18
2022-09-20T11:35:15.711Z,4.18
2022-09-20T11:38:41.212Z,4.82
2022-09-20T11:42:05.827Z,4.55
2022-09-20T11:45:28.540Z,5.03
2022-09-20T11:48:52.770Z,4.80
2022-09-20T11:52:28.561Z,4.60
2022-09-20T11:56:11.459Z,4.43
2022-09-20T11:59:38.854Z,4.95
2022-09-20T12:03:18.649Z,5.53
2022-09-20T12:06:40.273Z,5.32
2022-09-20T12:10:21.343Z,5.20
2022-09-20T12:13:43.220Z,5.18
2022-09-20T12:17:07.118Z,5.15
2022-09-20T12:20:46.259Z,5.72
2022-09-20T12:24:25.755Z,4.97
2022-09-20T12:27:57.867Z,5.05
2022-09-20T12:31:37.816Z,5.53
2022-09-20T12:35:37.119Z,4.97
2022-09-20T12:39:21.633Z,4.70
2022-09-20T12:42:46.255Z,5.18
2022-09-20T12:46:17.831Z,4.63
2022-09-20T12:49:56.359Z,4.35
2022-09-20T12:53:22.154Z,5.63
2022-09-20T12:56:46.155Z,5.72
2022-09-20T13:00:28.681Z,5.22
2022-09-20T13:03:54.440Z,4.38
2022-09-20T13:07:34.867Z,4.70
2022-09-20T13:11:00.084Z,4.80
2022-09-20T13:14:25.345Z,5.22
2022-09-20T13:17:47.946Z,5.15
2022-09-20T13:21:10.978Z,5.40
2022-09-20T13:24:38.328Z,5.75
2022-09-20T13:28:02.587Z,5.78
2022-09-20T13:31:25.365Z,5.45
2022-09-20T13:34:46.718Z,5.25
2022-09-20T13:38:10.710Z,5.30
2022-09-20T13:41:32.469Z,4.60
2022-09-20T13:44:53.510Z,5.20
2022-09-20T13:48:24.757Z,5.13
2022-09-20T13:51:45.019Z,5.00
2022-09-20T13:55:22.983Z,5.05
2022-09-20T13:58:43.538Z,5.05
2022-09-20T14:02:19.997Z,5.07
2022-09-20T14:05:46.668Z,5.43
2022-09-20T14:09:11.317Z,5.15
2022-09-20T14:12:32.565Z,5.20
2022-09-20T14:15:52.951Z,5.10
2022-09-20T14:19:15.198Z,4.78
2022-09-20T14:22:37.338Z,4.85
2022-09-20T14:26:23.054Z,4.82
2022-09-20T14:29:44.240Z,4.82
2022-09-20T14:33:12.853Z,4.60
2022-09-20T14:36:39.084Z,5.28
2022-09-20T14:40:17.234Z,5.10
2022-09-20T14:43:39.783Z,4.70
2022-09-20T14:47:15.363Z,4.63
2022-09-20T14:50:37.325Z,5.00
2022-09-20T14:54:25.426Z,4.90
2022-09-20T14:57:46.763Z,5.50
2022-09-20T15:01:15.334Z,5.20
2022-09-20T15:04:37.680Z,4.72
2022-09-20T15:07:59.043Z,5.13
2022-09-20T15:11:20.763Z,4.80
2022-09-20T15:14:41.388Z,4.53
2022-09-20T15:18:04.102Z,4.65
2022-09-20T15:21:24.403Z,4.60
2022-09-20T15:24:44.886Z,4.25
2022-09-20T15:28:07.631Z,4.55
2022-09-20T15:31:28.686Z,4.60
2022-09-20T15:34:49.381Z,4.90
2022-09-20T15:38:11.625Z,5.00
2022-09-20T15:41:32.480Z,4.60
2022-09-20T15:44:54.300Z,4.90
2022-09-20T15:48:14.851Z,5.13
2022-09-20T15:51:36.004Z,4.93
2022-09-20T15:55:00.097Z,4.80
2022-09-20T15:58:21.583Z,4.90
2022-09-20T16:01:43.833Z,4.78
2022-09-20T16:05:05.908Z,4.43
2022-09-20T16:08:26.188Z,4.63
2022-09-20T16:11:49.605Z,4.78
2022-09-20T16:15:10.734Z,4.43
2022-09-20T16:18:50.205Z,4.65
2022-09-20T16:22:12.449Z,4.70
2022-09-20T16:25:32.723Z,4.65
2022-09-20T16:28:53.029Z,4.63
2022-09-20T16:32:22.882Z,4.60
2022-09-20T16:35:44.546Z,4.07
2022-09-20T16:39:04.836Z,4.50
2022-09-20T16:42:25.063Z,4.30
2022-09-20T16:45:45.449Z,4.20
2022-09-20T16:49:07.242Z,4.10
2022-09-20T16:52:29.953Z,4.32
2022-09-20T16:55:50.471Z,4.18
2022-09-20T16:59:11.037Z,5.18
2022-09-20T17:02:31.834Z,4.82
2022-09-20T17:05:52.759Z,4.10
2022-09-20T17:09:14.757Z,5.13
2022-09-20T17:12:41.699Z,4.80
2022-09-20T17:16:02.864Z,5.25
2022-09-20T17:19:23.160Z,5.50
2022-09-20T17:22:43.720Z,5.07
2022-09-20T17:26:06.288Z,5.40
2022-09-20T17:29:30.386Z,5.50
2022-09-20T17:32:51.732Z,5.20
2022-09-20T17:36:13.843Z,6.35
2022-09-20T17:39:34.074Z,6.15
2022-09-20T17:42:56.242Z,6.45
2022-09-20T17:46:17.541Z,6.18
2022-09-20T17:49:38.384Z,5.68
2022-09-20T17:52:58.639Z,5.40
2022-09-20T17:56:19.034Z,5.75
2022-09-20T17:59:40.647Z,5.10
2022-09-20T18:03:04.893Z,4.60
2022-09-20T18:06:26.606Z,5.20
2022-09-20T18:09:48.141Z,4.50
2022-09-20T18:13:08.421Z,4.28
2022-09-20T18:16:31.104Z,3.80
2022-09-20T18:19:51.421Z,4.18
2022-09-20T18:23:11.717Z,3.38
2022-09-20T18:26:32.763Z,3.67
2022-09-20T18:29:56.000Z,3.28
2022-09-20T18:33:17.680Z,3.30
2022-09-20T18:36:40.363Z,3.53
2022-09-20T18:40:00.810Z,3.45
2022-09-20T18:43:21.115Z,3.67
2022-09-20T18:46:44.166Z,3.70
2022-09-20T18:50:11.963Z,3.60
2022-09-20T18:53:32.647Z,3.88
2022-09-20T18:56:59.751Z,3.33
2022-09-20T19:00:21.356Z,2.85
2022-09-20T19:03:51.777Z,3.03
2022-09-20T19:07:16.599Z,2.95
2022-09-20T19:10:41.345Z,2.90
2022-09-20T19:14:12.505Z,3.20
2022-09-20T19:17:38.544Z,3.38
2022-09-20T19:21:06.567Z,3.35
2022-09-20T19:24:44.443Z,3.55
2022-09-20T19:28:05.971Z,2.67
2022-09-20T19:31:27.865Z,3.00
2022-09-20T19:34:51.273Z,3.53
2022-09-20T19:38:17.719Z,3.63
2022-09-20T19:41:47.221Z,3.38
2022-09-20T19:45:24.114Z,3.10
2022-09-20T19:48:49.660Z,3.13
2022-09-20T19:52:10.289Z,3.00
2022-09-20T19:55:31.229Z,3.20
2022-09-20T19:58:54.939Z,3.10
2022-09-20T20:02:15.983Z,4.35
2022-09-20T20:05:36.793Z,3.35
2022-09-20T20:09:07.188Z,2.90
2022-09-20T20:12:34.079Z,3.13
2022-09-20T20:16:01.228Z,3.20
2022-09-20T20:19:31.027Z,3.42
2022-09-20T20:23:00.827Z,3.90
2022-09-20T20:26:26.469Z,3.90
2022-09-20T20:29:47.217Z,4.28
2022-09-20T20:33:09.378Z,4.50
2022-09-20T20:36:29.830Z,4.75
2022-09-20T20:39:50.127Z,4.10
2022-09-20T20:43:10.412Z,4.55
2022-09-20T20:46:32.430Z,4.25
2022-09-20T20:49:55.076Z,4.90
2022-09-20T20:53:15.445Z,4.60
2022-09-20T20:56:35.672Z,4.18
2022-09-20T20:59:57.135Z,4.80
2022-09-20T21:03:17.513Z,3.70
2022-09-20T21:06:46.756Z,4.00
2022-09-20T21:10:08.269Z,3.78
2022-09-20T21:13:29.989Z,4.45
2022-09-20T21:16:57.142Z,4.32
2022-09-20T21:20:17.541Z,5.00
2022-09-20T21:23:39.950Z,4.60
2022-09-20T21:27:03.628Z,5.28
2022-09-20T21:30:24.013Z,5.13
2022-09-20T21:33:46.972Z,4.93
2022-09-20T21:37:09.600Z,4.55
2022-09-20T21:40:31.442Z,4.95
2022-09-20T21:43:53.045Z,5.43
2022-09-20T21:47:20.118Z,4.53
2022-09-20T21:50:40.444Z,4.85
2022-09-20T21:54:01.245Z,4.82
2022-09-20T21:57:23.925Z,4.47
2022-09-20T22:00:44.193Z,4.35
2022-09-20T22:04:05.373Z,5.90
2022-09-20T22:07:26.469Z,7.40
2022-09-20T22:10:55.599Z,5.18
2022-09-20T22:14:18.435Z,5.05
2022-09-20T22:17:39.634Z,4.70
2022-09-20T22:21:02.569Z,4.55
2022-09-20T22:24:22.895Z,4.72
2022-09-20T22:27:43.844Z,6.33
2022-09-20T22:31:07.090Z,6.70
2022-09-20T22:34:27.952Z,4.65
2022-09-20T22:37:48.157Z,4.57
2022-09-20T22:41:08.453Z,4.63
2022-09-20T22:44:29.056Z,4.80
2022-09-20T22:47:50.806Z,4.97
2022-09-20T22:51:11.836Z,5.75
2022-09-20T22:54:35.467Z,5.78
2022-09-20T22:57:55.800Z,5.40
2022-09-20T23:01:16.909Z,5.35
2022-09-20T23:04:39.163Z,5.05
2022-09-20T23:07:59.376Z,4.85
2022-09-20T23:11:19.891Z,5.47
2022-09-20T23:14:40.864Z,5.88
2022-09-20T23:18:01.092Z,5.15
2022-09-20T23:21:22.814Z,5.20
2022-09-20T23:24:46.379Z,5.88
2022-09-20T23:28:06.617Z,5.90
2022-09-20T23:31:27.146Z,5.63
2022-09-20T23:34:48.808Z,5.82
2022-09-20T23:38:10.514Z,5.97
2022-09-20T23:41:30.724Z,5.60
2022-09-20T23:44:51.088Z,5.38
2022-09-20T23:48:11.285Z,5.00
2022-09-20T23:51:32.508Z,5.35
2022-09-20T23:54:54.152Z,5.50
2022-09-20T23:58:14.341Z,4.88
